Time;durP1;ratioP1;P1;durP2;ratioP2;P2;SDS_P1;SDS_P2;PMS_P1;PMS_P2;Temp;Humidity;BMP_temperature;BMP_pressure;BME280_temperature;BME280_humidity;BME280_pressure;Samples;Min_cycle;Max_cycle;Signal;HPM_P1;HPM_P2
2021/06/19 00:02:14;;;;;;;5.85;3.70;;;23.20;85.40;;;;;;5053227;28;20031;-75
2021/06/19 00:04:40;;;;;;;7.28;3.70;;;23.20;85.50;;;;;;5053438;28;20021;-75
2021/06/19 00:07:06;;;;;;;6.90;3.70;;;23.20;85.60;;;;;;5052439;28;20036;-76
2021/06/19 00:09:34;;;;;;;9.30;4.10;;;23.20;86.30;;;;;;5052927;28;20024;-75
2021/06/19 00:12:01;;;;;;;9.73;4.70;;;23.20;85.80;;;;;;5052306;28;20025;-75
2021/06/19 00:14:27;;;;;;;7.20;3.55;;;23.20;85.80;;;;;;5053110;28;20021;-75
2021/06/19 00:16:53;;;;;;;6.95;4.38;;;23.20;85.80;;;;;;5052218;28;20028;-75
2021/06/19 00:19:19;;;;;;;5.97;4.32;;;23.20;86.00;;;;;;5052967;28;20033;-76
2021/06/19 00:21:44;;;;;;;7.25;3.78;;;23.20;86.00;;;;;;5052131;28;20021;-75
2021/06/19 00:24:19;;;;;;;7.82;4.60;;;23.10;86.10;;;;;;5052084;28;20431;-74
2021/06/19 00:26:46;;;;;;;7.07;4.35;;;23.10;86.30;;;;;;5052879;28;20063;-76
2021/06/19 00:29:12;;;;;;;8.15;4.47;;;23.10;86.40;;;;;;5051985;28;20028;-75
2021/06/19 00:31:37;;;;;;;6.50;4.18;;;23.10;86.40;;;;;;5052518;28;20029;-74
2021/06/19 00:34:03;;;;;;;8.90;5.07;;;23.10;86.40;;;;;;5051928;28;20017;-76
2021/06/19 00:36:28;;;;;;;9.25;4.60;;;23.00;86.40;;;;;;5051009;28;20025;-74
2021/06/19 00:38:54;;;;;;;9.55;4.15;;;23.10;86.50;;;;;;5050424;28;20418;-75
2021/06/19 00:41:20;;;;;;;9.32;4.78;;;23.00;86.50;;;;;;5052428;28;20056;-75
2021/06/19 00:43:45;;;;;;;9.73;4.90;;;23.00;86.50;;;;;;5051106;28;20112;-75
2021/06/19 00:46:11;;;;;;;9.32;4.50;;;23.00;86.60;;;;;;5051721;28;20036;-75
2021/06/19 00:48:37;;;;;;;4.97;3.45;;;22.90;86.70;;;;;;5050936;28;20036;-75
2021/06/19 00:51:03;;;;;;;6.53;4.00;;;22.90;86.80;;;;;;5051265;28;20182;-76
2021/06/19 00:53:28;;;;;;;6.72;4.38;;;22.90;86.90;;;;;;5052283;28;20032;-75
2021/06/19 00:55:54;;;;;;;9.38;4.03;;;22.90;87.00;;;;;;5051333;28;20028;-72
2021/06/19 00:58:20;;;;;;;8.07;4.82;;;22.90;87.00;;;;;;5052116;28;20028;-75
2021/06/19 01:00:46;;;;;;;8.18;4.43;;;22.90;87.20;;;;;;5052087;28;20032;-76
2021/06/19 01:03:13;;;;;;;7.20;4.38;;;22.90;87.30;;;;;;5051186;28;20029;-74
2021/06/19 01:05:39;;;;;;;7.65;4.00;;;22.90;87.30;;;;;;5050802;28;20017;-75
2021/06/19 01:08:05;;;;;;;7.40;4.00;;;22.90;87.20;;;;;;5051437;28;20466;-75
2021/06/19 01:10:31;;;;;;;8.60;4.25;;;22.90;87.20;;;;;;5050470;28;20037;-75
2021/06/19 01:12:59;;;;;;;6.70;3.47;;;22.90;87.20;;;;;;5050105;28;20025;-75
2021/06/19 01:15:24;;;;;;;6.68;3.20;;;22.90;87.20;;;;;;5051801;28;20036;-75
2021/06/19 01:17:50;;;;;;;6.25;3.08;;;22.90;87.20;;;;;;5050516;28;20021;-75
2021/06/19 01:20:18;;;;;;;4.63;2.70;;;22.90;86.50;;;;;;5051574;28;20465;-75
2021/06/19 01:22:47;;;;;;;5.47;2.88;;;22.90;86.00;;;;;;5051918;28;20024;-75
2021/06/19 01:25:18;;;;;;;3.90;2.58;;;22.90;85.70;;;;;;5049999;28;20368;-76
2021/06/19 01:27:47;;;;;;;5.45;2.00;;;22.80;85.20;;;;;;5050382;28;20044;-74
2021/06/19 01:30:13;;;;;;;2.88;2.10;;;22.80;84.30;;;;;;5049759;28;20349;-75
2021/06/19 01:32:40;;;;;;;4.43;2.05;;;22.90;83.90;;;;;;5053061;28;20099;-75
2021/06/19 01:35:08;;;;;;;2.63;1.85;;;22.90;83.50;;;;;;5053483;28;20084;-74
2021/06/19 01:37:35;;;;;;;2.42;1.70;;;22.90;83.10;;;;;;5055382;28;20054;-75
2021/06/19 01:40:08;;;;;;;4.07;1.70;;;22.90;83.00;;;;;;5053983;28;20029;-76
2021/06/19 01:42:37;;;;;;;2.30;1.63;;;22.90;82.90;;;;;;5055643;28;20028;-75
2021/06/19 01:45:03;;;;;;;3.83;1.52;;;22.90;82.80;;;;;;5053902;28;20051;-75
2021/06/19 01:47:29;;;;;;;2.53;1.77;;;22.90;83.00;;;;;;5054351;28;20025;-76
2021/06/19 01:49:55;;;;;;;2.85;1.70;;;22.90;83.20;;;;;;5054232;28;20405;-75
2021/06/19 01:52:21;;;;;;;3.15;1.92;;;22.90;82.10;;;;;;5055659;28;20067;-75
2021/06/19 01:54:47;;;;;;;3.42;1.75;;;22.90;82.20;;;;;;5054379;28;20025;-75
2021/06/19 01:57:12;;;;;;;3.95;1.83;;;22.90;82.80;;;;;;5054789;28;20028;-74
2021/06/19 01:59:38;;;;;;;3.30;2.00;;;22.90;82.20;;;;;;5055475;28;20103;-75
2021/06/19 02:02:04;;;;;;;3.03;1.80;;;22.90;82.00;;;;;;5053196;28;20021;-74
2021/06/19 02:04:33;;;;;;;6.07;2.13;;;22.80;82.00;;;;;;5055397;28;20104;-74
2021/06/19 02:06:59;;;;;;;2.08;1.63;;;22.80;82.10;;;;;;5054657;28;20025;-76
2021/06/19 02:09:25;;;;;;;2.92;2.22;;;22.80;82.20;;;;;;5055255;28;20025;-74
2021/06/19 02:11:50;;;;;;;5.95;2.17;;;22.80;82.10;;;;;;5054944;28;20021;-75
2021/06/19 02:14:16;;;;;;;3.50;1.90;;;22.80;82.30;;;;;;5054628;28;20025;-76
2021/06/19 02:16:43;;;;;;;3.40;1.80;;;22.80;82.30;;;;;;5053886;28;20373;-76
2021/06/19 02:19:09;;;;;;;4.63;2.50;;;22.80;82.20;;;;;;5053194;28;20017;-75
2021/06/19 02:21:35;;;;;;;4.70;2.08;;;22.80;82.30;;;;;;5054819;28;20056;-75
2021/06/19 02:24:01;;;;;;;4.88;2.00;;;22.80;82.30;;;;;;5054273;28;20418;-75
2021/06/19 02:26:26;;;;;;;5.22;2.35;;;22.80;82.30;;;;;;5054966;28;20025;-75
2021/06/19 02:28:52;;;;;;;2.92;1.90;;;22.80;82.30;;;;;;5054693;28;20377;-75
2021/06/19 02:31:19;;;;;;;2.63;1.83;;;22.70;82.40;;;;;;5053921;28;20339;-75
2021/06/19 02:33:46;;;;;;;4.85;2.55;;;22.70;82.40;;;;;;5054832;28;20462;-76
2021/06/19 02:36:12;;;;;;;3.97;2.47;;;22.70;82.60;;;;;;5054405;28;20021;-75
2021/06/19 02:38:38;;;;;;;2.70;2.00;;;22.60;82.60;;;;;;5054702;28;20025;-74
2021/06/19 02:41:04;;;;;;;3.63;2.60;;;22.60;82.90;;;;;;5054218;28;20029;-75
2021/06/19 02:43:30;;;;;;;5.60;2.30;;;22.60;83.10;;;;;;5054693;28;20029;-75
2021/06/19 02:45:59;;;;;;;4.72;2.38;;;22.50;83.20;;;;;;5053999;28;20025;-75
2021/06/19 02:48:25;;;;;;;5.20;2.63;;;22.60;83.30;;;;;;5053998;28;20017;-75
2021/06/19 02:50:51;;;;;;;4.13;2.70;;;22.50;83.20;;;;;;5054166;28;20084;-75
2021/06/19 02:53:17;;;;;;;4.38;2.40;;;22.50;83.30;;;;;;5053962;28;20056;-76
2021/06/19 02:55:44;;;;;;;3.75;1.90;;;22.50;83.50;;;;;;5054286;28;20129;-75
2021/06/19 02:58:11;;;;;;;4.03;2.80;;;22.60;83.40;;;;;;5052580;28;20534;-75
2021/06/19 03:00:38;;;;;;;3.38;2.42;;;22.60;83.10;;;;;;5054277;28;20052;-76
2021/06/19 03:03:05;;;;;;;3.10;2.45;;;22.70;83.10;;;;;;5052395;28;20024;-76
2021/06/19 03:05:33;;;;;;;4.00;2.65;;;22.70;82.90;;;;;;5054228;28;20060;-75
2021/06/19 03:08:00;;;;;;;5.13;2.60;;;22.80;82.90;;;;;;5053950;28;20025;-74
2021/06/19 03:10:31;;;;;;;5.70;2.47;;;22.90;83.40;;;;;;5053166;28;20401;-75
2021/06/19 03:12:58;;;;;;;3.40;2.33;;;22.90;82.50;;;;;;5053861;28;20021;-75
2021/06/19 03:15:24;;;;;;;4.70;2.20;;;23.00;82.40;;;;;;5053565;28;20017;-74
2021/06/19 03:17:50;;;;;;;4.30;2.72;;;23.00;82.30;;;;;;5054049;28;20025;-76
2021/06/19 03:20:17;;;;;;;3.63;2.67;;;23.00;82.80;;;;;;5052374;28;20373;-75
2021/06/19 03:22:52;;;;;;;4.50;2.13;;;23.10;82.20;;;;;;5053935;28;20029;-74
2021/06/19 03:25:23;;;;;;;3.28;2.22;;;23.00;82.10;;;;;;5053276;28;20013;-74
2021/06/19 03:27:49;;;;;;;6.57;2.83;;;23.10;82.30;;;;;;5053870;28;20055;-75
2021/06/19 03:30:18;;;;;;;6.38;2.47;;;23.10;82.20;;;;;;5053184;28;20106;-75
2021/06/19 03:32:44;;;;;;;3.17;2.22;;;23.10;82.20;;;;;;5053768;28;20032;-75
2021/06/19 03:35:10;;;;;;;3.10;2.22;;;23.10;82.30;;;;;;5053052;28;20043;-75
2021/06/19 03:37:36;;;;;;;3.83;2.55;;;23.10;82.20;;;;;;5053460;28;20025;-75
2021/06/19 03:40:05;;;;;;;4.07;2.88;;;23.10;82.00;;;;;;5052445;28;20021;-75
2021/06/19 03:42:31;;;;;;;3.92;2.75;;;23.20;82.10;;;;;;5052179;28;20469;-74
2021/06/19 03:44:56;;;;;;;2.95;2.47;;;23.20;82.10;;;;;;5052274;28;20021;-75
2021/06/19 03:47:22;;;;;;;4.30;2.70;;;23.20;82.00;;;;;;5051340;28;20106;-75
2021/06/19 03:49:48;;;;;;;5.90;3.63;;;23.20;82.00;;;;;;5052288;28;20140;-75
2021/06/19 03:52:13;;;;;;;5.13;3.30;;;23.10;81.70;;;;;;5053027;28;20452;-75
2021/06/19 03:54:39;;;;;;;6.90;3.40;;;23.10;81.50;;;;;;5053314;28;20040;-74
2021/06/19 03:57:05;;;;;;;5.40;3.25;;;23.00;81.50;;;;;;5051015;28;20032;-76
2021/06/19 03:59:32;;;;;;;6.97;4.03;;;23.10;81.70;;;;;;5052809;28;20381;-75
2021/06/19 04:01:58;;;;;;;5.57;3.03;;;23.00;81.60;;;;;;5053265;28;20457;-75
2021/06/19 04:04:24;;;;;;;4.90;3.40;;;23.00;81.50;;;;;;5051265;28;20043;-75
2021/06/19 04:06:49;;;;;;;5.68;3.75;;;23.10;81.60;;;;;;5053054;28;20025;-75
2021/06/19 04:09:16;;;;;;;5.68;3.90;;;23.10;81.40;;;;;;5052432;28;20021;-75
2021/06/19 04:11:42;;;;;;;4.85;3.10;;;23.10;81.30;;;;;;5052834;28;20029;-75
2021/06/19 04:14:08;;;;;;;7.07;3.78;;;23.00;81.10;;;;;;5050733;28;20115;-76
2021/06/19 04:16:34;;;;;;;6.43;3.80;;;23.10;81.40;;;;;;5052584;28;20465;-75
2021/06/19 04:19:00;;;;;;;5.80;3.63;;;23.00;81.40;;;;;;5052828;28;20240;-75
2021/06/19 04:21:25;;;;;;;5.85;3.38;;;23.00;81.30;;;;;;5052186;28;20075;-75
2021/06/19 04:23:51;;;;;;;8.07;3.90;;;23.00;81.20;;;;;;5052752;28;20021;-75
2021/06/19 04:26:16;;;;;;;6.57;4.07;;;23.10;81.10;;;;;;5051747;28;20052;-74
2021/06/19 04:28:42;;;;;;;5.50;3.92;;;23.10;81.00;;;;;;5052992;28;20025;-74
2021/06/19 04:31:08;;;;;;;5.70;3.53;;;23.10;80.90;;;;;;5050447;28;20114;-76
2021/06/19 04:33:34;;;;;;;5.68;3.30;;;23.10;81.10;;;;;;5052608;28;20234;-75
2021/06/19 04:36:01;;;;;;;6.07;3.88;;;23.10;81.20;;;;;;5051241;28;20112;-75
2021/06/19 04:38:27;;;;;;;5.72;3.28;;;23.10;81.20;;;;;;5050575;28;20115;-75
2021/06/19 04:41:00;;;;;;;5.10;3.13;;;23.20;81.30;;;;;;5052171;28;20163;-75
2021/06/19 04:43:42;;;;;;;4.88;3.00;;;23.20;81.20;;;;;;5051634;28;20354;-75
2021/06/19 04:46:07;;;;;;;5.35;3.30;;;23.30;81.20;;;;;;5052401;28;20036;-76
2021/06/19 04:48:33;;;;;;;6.50;3.08;;;23.30;81.10;;;;;;5050204;28;20021;-75
2021/06/19 04:50:59;;;;;;;4.47;2.95;;;23.30;81.00;;;;;;5051744;28;20144;-75
2021/06/19 04:53:24;;;;;;;5.30;2.78;;;23.30;80.90;;;;;;5050185;28;20112;-75
2021/06/19 04:55:50;;;;;;;4.25;2.80;;;23.40;80.60;;;;;;5050914;28;20116;-75
2021/06/19 04:58:16;;;;;;;4.05;2.70;;;23.40;80.60;;;;;;5051635;28;20032;-75
2021/06/19 05:00:41;;;;;;;3.75;2.40;;;23.40;80.50;;;;;;5050996;28;20017;-75
2021/06/19 05:03:07;;;;;;;4.55;2.95;;;23.40;80.60;;;;;;5050741;28;20492;-75
2021/06/19 05:05:33;;;;;;;4.70;3.00;;;23.30;80.60;;;;;;5051457;28;20057;-75
2021/06/19 05:07:59;;;;;;;4.80;2.95;;;23.30;80.70;;;;;;5050490;28;20013;-75
2021/06/19 05:10:25;;;;;;;4.47;3.08;;;23.30;80.60;;;;;;5051324;28;20117;-76
2021/06/19 05:12:51;;;;;;;4.80;3.25;;;23.20;80.60;;;;;;5051771;28;20021;-75
2021/06/19 05:15:23;;;;;;;6.10;3.28;;;23.20;80.80;;;;;;5051333;28;20086;-75
2021/06/19 05:17:49;;;;;;;4.75;2.90;;;23.20;80.50;;;;;;5050359;28;20025;-75
2021/06/19 05:20:15;;;;;;;4.20;2.78;;;23.20;80.50;;;;;;5051029;28;20389;-75
2021/06/19 05:22:41;;;;;;;4.00;2.55;;;23.30;80.60;;;;;;5051875;28;20021;-74
2021/06/19 05:25:08;;;;;;;6.55;3.17;;;23.30;80.50;;;;;;5050496;28;20491;-75
2021/06/19 05:27:34;;;;;;;4.53;3.03;;;23.40;80.50;;;;;;5049971;28;20032;-75
2021/06/19 05:29:59;;;;;;;6.07;3.15;;;23.40;80.60;;;;;;5051668;28;20029;-75
2021/06/19 05:32:25;;;;;;;5.78;3.50;;;23.50;80.50;;;;;;5049909;28;20025;-75
2021/06/19 05:34:51;;;;;;;5.40;3.38;;;23.50;80.10;;;;;;5050317;28;20122;-76
2021/06/19 05:37:17;;;;;;;5.35;3.63;;;23.50;79.90;;;;;;5051064;28;20025;-76
2021/06/19 05:39:43;;;;;;;5.65;3.33;;;23.40;79.60;;;;;;5051657;28;20017;-74
2021/06/19 05:42:08;;;;;;;5.05;3.50;;;23.40;79.60;;;;;;5050330;28;20453;-74
2021/06/19 05:44:35;;;;;;;6.50;4.00;;;23.30;79.20;;;;;;5050680;28;20377;-76
2021/06/19 05:47:00;;;;;;;6.00;4.13;;;23.30;79.20;;;;;;5051612;28;20025;-75
2021/06/19 05:49:26;;;;;;;4.82;3.28;;;23.30;79.10;;;;;;5050990;28;20036;-74
2021/06/19 05:51:52;;;;;;;7.80;3.97;;;23.30;79.00;;;;;;5049838;28;20056;-76
2021/06/19 05:54:17;;;;;;;5.65;3.60;;;23.40;79.10;;;;;;5049666;28;20412;-75
2021/06/19 05:56:43;;;;;;;5.07;3.50;;;23.40;78.90;;;;;;5050293;28;20022;-75
2021/06/19 05:59:09;;;;;;;6.25;4.07;;;23.40;78.90;;;;;;5051576;28;20481;-75
2021/06/19 06:01:35;;;;;;;4.28;3.30;;;23.30;78.70;;;;;;5051178;28;20036;-75
2021/06/19 06:04:00;;;;;;;5.32;3.78;;;23.40;78.90;;;;;;5050105;28;20029;-75
2021/06/19 06:06:26;;;;;;;5.07;3.35;;;23.40;78.80;;;;;;5049516;28;20120;-75
2021/06/19 06:08:52;;;;;;;5.85;3.58;;;23.30;78.70;;;;;;5051445;28;20021;-75
2021/06/19 06:11:18;;;;;;;6.90;4.00;;;23.30;78.90;;;;;;5049393;28;20354;-76
2021/06/19 06:13:44;;;;;;;5.32;4.00;;;23.30;78.90;;;;;;5051333;28;20029;-75
2021/06/19 06:16:10;;;;;;;6.78;3.85;;;23.10;78.80;;;;;;5051236;28;20025;-77
2021/06/19 06:18:35;;;;;;;7.38;3.90;;;23.10;79.70;;;;;;5050774;28;20112;-75
2021/06/19 06:21:03;;;;;;;6.28;3.78;;;23.20;79.80;;;;;;5054481;28;20025;-76
2021/06/19 06:23:30;;;;;;;7.50;3.92;;;23.30;79.00;;;;;;5054303;28;20021;-76
2021/06/19 06:25:56;;;;;;;10.80;6.63;;;23.40;78.80;;;;;;5054807;28;20025;-77
2021/06/19 06:28:21;;;;;;;11.07;7.03;;;23.50;78.60;;;;;;5054428;28;20047;-75
2021/06/19 06:30:48;;;;;;;11.27;7.13;;;23.50;78.40;;;;;;5053258;28;20025;-75
2021/06/19 06:33:14;;;;;;;14.85;8.77;;;23.60;78.30;;;;;;5054973;28;20106;-75
2021/06/19 06:35:39;;;;;;;14.45;9.38;;;23.40;78.00;;;;;;5054183;28;20368;-75
2021/06/19 06:38:05;;;;;;;15.23;8.98;;;23.30;77.70;;;;;;5054820;28;20412;-75
2021/06/19 06:40:31;;;;;;;14.52;10.13;;;23.20;77.70;;;;;;5054217;28;20059;-75
2021/06/19 06:42:57;;;;;;;19.90;9.68;;;23.10;77.80;;;;;;5053531;28;20021;-75
2021/06/19 06:45:23;;;;;;;16.02;9.73;;;23.10;77.00;;;;;;5054092;28;20025;-75
2021/06/19 06:47:50;;;;;;;16.33;10.02;;;23.00;76.80;;;;;;5054493;28;20060;-76
2021/06/19 06:50:16;;;;;;;19.95;10.32;;;22.90;77.30;;;;;;5053229;28;20124;-76
2021/06/19 06:52:41;;;;;;;16.33;10.07;;;22.90;77.50;;;;;;5052565;28;20461;-75
2021/06/19 06:55:08;;;;;;;16.52;9.95;;;22.90;76.30;;;;;;5053095;28;20071;-76
2021/06/19 06:57:34;;;;;;;17.73;9.23;;;22.90;75.90;;;;;;5052601;28;20017;-76
2021/06/19 07:00:00;;;;;;;15.48;8.20;;;22.80;76.20;;;;;;5053055;28;20531;-75
2021/06/19 07:02:26;;;;;;;14.57;7.78;;;22.60;76.80;;;;;;5053863;28;20504;-75
2021/06/19 07:04:52;;;;;;;15.63;7.78;;;22.60;77.20;;;;;;5054576;28;20385;-76
2021/06/19 07:07:18;;;;;;;15.65;8.25;;;22.70;76.70;;;;;;5054408;28;20024;-76
2021/06/19 07:09:44;;;;;;;13.35;7.72;;;22.70;75.50;;;;;;5053498;28;20468;-76
2021/06/19 07:12:10;;;;;;;14.25;8.05;;;22.80;75.30;;;;;;5054189;28;20070;-76
2021/06/19 07:14:36;;;;;;;15.88;7.13;;;22.90;75.10;;;;;;5053622;28;20234;-76
2021/06/19 07:17:01;;;;;;;13.85;7.65;;;22.90;74.50;;;;;;5054103;28;20053;-74
2021/06/19 07:19:27;;;;;;;13.73;6.82;;;23.00;74.20;;;;;;5053420;28;20354;-76
2021/06/19 07:21:53;;;;;;;12.30;6.75;;;23.10;73.90;;;;;;5054140;28;20036;-74
2021/06/19 07:24:19;;;;;;;10.35;5.95;;;23.20;73.90;;;;;;5053999;28;20509;-75
2021/06/19 07:26:45;;;;;;;11.02;6.68;;;23.30;73.70;;;;;;5053446;28;20057;-75
2021/06/19 07:29:10;;;;;;;13.25;6.63;;;23.40;72.40;;;;;;5054175;28;20021;-76
2021/06/19 07:31:36;;;;;;;13.73;7.35;;;23.30;72.30;;;;;;5051714;28;20072;-76
2021/06/19 07:34:03;;;;;;;10.80;6.55;;;23.50;72.40;;;;;;5052428;28;20396;-76
2021/06/19 07:36:28;;;;;;;11.65;7.10;;;23.40;72.10;;;;;;5052969;28;20029;-75
2021/06/19 07:38:54;;;;;;;11.32;6.85;;;23.50;71.50;;;;;;5053695;28;20104;-75
2021/06/19 07:41:20;;;;;;;12.63;6.93;;;23.50;71.20;;;;;;5053344;28;20098;-76
2021/06/19 07:43:45;;;;;;;13.07;6.70;;;23.40;71.30;;;;;;5053021;28;20025;-76
2021/06/19 07:46:11;;;;;;;12.85;7.60;;;23.30;71.70;;;;;;5052155;28;20025;-76
2021/06/19 07:48:37;;;;;;;12.05;7.10;;;23.40;71.60;;;;;;5051584;28;20100;-75
2021/06/19 07:51:03;;;;;;;11.60;7.35;;;23.40;71.70;;;;;;5051957;28;20489;-75
2021/06/19 07:53:28;;;;;;;10.40;6.72;;;23.30;71.20;;;;;;5051555;28;20021;-75
2021/06/19 07:55:54;;;;;;;12.48;6.47;;;23.20;71.30;;;;;;5052153;28;20127;-76
2021/06/19 07:58:19;;;;;;;11.32;6.57;;;23.10;71.40;;;;;;5051933;28;20361;-76
2021/06/19 08:00:45;;;;;;;16.35;7.88;;;23.00;72.20;;;;;;5051374;28;20445;-75
2021/06/19 08:03:11;;;;;;;15.93;8.55;;;22.90;72.00;;;;;;5051864;28;20027;-76
2021/06/19 08:05:36;;;;;;;11.98;7.03;;;22.80;72.60;;;;;;5051285;28;20052;-75
2021/06/19 08:08:02;;;;;;;13.02;5.80;;;22.70;73.30;;;;;;5051892;28;20403;-76
2021/06/19 08:10:28;;;;;;;12.52;6.95;;;22.60;73.10;;;;;;5051241;28;20029;-74
2021/06/19 08:12:54;;;;;;;15.55;7.55;;;22.70;73.30;;;;;;5052885;28;20476;-76
2021/06/19 08:15:20;;;;;;;12.48;6.82;;;22.80;73.10;;;;;;5050122;28;20025;-75
2021/06/19 08:17:47;;;;;;;14.50;7.88;;;22.90;73.00;;;;;;5030892;28;20071;-75
2021/06/19 08:20:13;;;;;;;12.75;7.80;;;23.00;72.00;;;;;;5032767;28;20052;-76
2021/06/19 08:22:39;;;;;;;15.35;8.85;;;23.10;72.10;;;;;;5032250;28;20021;-75
2021/06/19 08:25:05;;;;;;;15.93;8.45;;;23.30;71.80;;;;;;5031472;28;20071;-76
2021/06/19 08:27:31;;;;;;;16.23;8.55;;;23.40;71.90;;;;;;5032228;28;20021;-75
2021/06/19 08:29:57;;;;;;;17.95;9.50;;;23.60;71.30;;;;;;5031489;28;20412;-76
2021/06/19 08:32:23;;;;;;;17.75;9.48;;;23.70;70.40;;;;;;5032534;28;20581;-75
2021/06/19 08:34:49;;;;;;;15.82;8.98;;;23.70;70.40;;;;;;5032116;28;20458;-76
2021/06/19 08:37:15;;;;;;;17.10;9.25;;;23.70;70.50;;;;;;5032718;28;20025;-77
2021/06/19 08:39:41;;;;;;;18.73;9.25;;;23.80;70.00;;;;;;5031952;28;20036;-75
2021/06/19 08:42:07;;;;;;;15.38;9.38;;;23.90;69.80;;;;;;5031870;28;20026;-76
2021/06/19 08:44:33;;;;;;;21.00;11.00;;;24.00;69.70;;;;;;5032193;28;20030;-75
2021/06/19 08:46:59;;;;;;;19.13;10.15;;;24.00;69.70;;;;;;5032419;28;20021;-76
2021/06/19 08:49:27;;;;;;;19.10;10.52;;;24.00;69.30;;;;;;5032182;28;20493;-75
2021/06/19 08:51:54;;;;;;;17.10;9.60;;;23.90;69.30;;;;;;5032251;28;20059;-75
2021/06/19 08:54:21;;;;;;;16.70;10.15;;;23.90;69.50;;;;;;5032440;28;20021;-75
2021/06/19 08:56:47;;;;;;;16.52;9.02;;;23.80;69.10;;;;;;5031635;28;20038;-77
2021/06/19 08:59:13;;;;;;;14.93;9.05;;;23.70;69.70;;;;;;5031994;28;20026;-75
2021/06/19 09:01:40;;;;;;;12.77;7.93;;;23.70;70.30;;;;;;5031207;28;20057;-76
2021/06/19 09:04:07;;;;;;;14.95;9.20;;;23.60;70.10;;;;;;5030887;28;20026;-76
2021/06/19 09:06:37;;;;;;;13.48;8.70;;;23.50;70.60;;;;;;5031160;28;20409;-76
2021/06/19 09:09:02;;;;;;;14.25;8.15;;;23.40;70.90;;;;;;5031047;28;20377;-76
2021/06/19 09:11:30;;;;;;;15.15;8.82;;;23.40;70.60;;;;;;5031706;28;20025;-75
2021/06/19 09:14:01;;;;;;;15.68;9.15;;;23.30;70.90;;;;;;5030727;28;20462;-75
2021/06/19 09:16:26;;;;;;;12.75;9.02;;;23.30;70.80;;;;;;5032164;28;20022;-75
2021/06/19 09:18:52;;;;;;;13.48;8.85;;;23.40;70.80;;;;;;5031560;28;20025;-76
2021/06/19 09:21:30;;;;;;;13.32;8.43;;;23.40;70.80;;;;;;5031961;28;20119;-76
2021/06/19 09:23:57;;;;;;;14.45;8.50;;;23.60;70.40;;;;;;5032417;28;20036;-76
2021/06/19 09:26:31;;;;;;;15.35;8.95;;;23.80;70.10;;;;;;5031907;28;20128;-76
2021/06/19 09:29:07;;;;;;;12.65;8.52;;;23.90;69.30;;;;;;5031882;28;20033;-75
2021/06/19 09:31:44;;;;;;;11.65;8.02;;;23.90;69.00;;;;;;5031036;28;20025;-76
2021/06/19 09:34:21;;;;;;;13.00;8.38;;;23.70;69.10;;;;;;5032037;28;20026;-76
2021/06/19 09:36:48;;;;;;;12.75;8.23;;;23.70;69.50;;;;;;5031242;28;20500;-75
2021/06/19 09:39:16;;;;;;;13.10;7.95;;;23.70;69.30;;;;;;5031777;28;20374;-76
2021/06/19 09:41:45;;;;;;;11.25;7.93;;;23.80;68.90;;;;;;5031077;28;20540;-75
2021/06/19 09:44:11;;;;;;;12.73;7.78;;;23.90;69.00;;;;;;5031872;28;20108;-76
2021/06/19 09:46:37;;;;;;;12.57;8.23;;;24.10;68.60;;;;;;5031057;28;20643;-76
2021/06/19 09:49:15;;;;;;;13.13;8.15;;;24.20;68.50;;;;;;5031517;28;20053;-76
2021/06/19 09:51:54;;;;;;;13.82;8.45;;;24.50;67.80;;;;;;5029476;28;20052;-75
2021/06/19 09:54:20;;;;;;;14.77;8.50;;;24.60;66.80;;;;;;5032200;28;20454;-75
2021/06/19 09:56:47;;;;;;;15.40;10.02;;;24.70;67.00;;;;;;5033408;28;20026;-75
2021/06/19 09:59:30;;;;;;;13.35;8.85;;;24.80;66.50;;;;;;5035561;28;20018;-75
2021/06/19 10:01:57;;;;;;;18.23;9.57;;;24.80;66.30;;;;;;5034777;28;20033;-75
2021/06/19 10:04:25;;;;;;;16.20;9.98;;;24.70;66.40;;;;;;5034132;28;20025;-75
2021/06/19 10:06:52;;;;;;;16.20;9.38;;;24.60;66.70;;;;;;5035020;28;20100;-75
2021/06/19 10:09:18;;;;;;;16.00;8.70;;;24.30;67.20;;;;;;5034019;28;20052;-76
2021/06/19 10:11:53;;;;;;;15.70;10.13;;;24.10;67.80;;;;;;5033301;28;20029;-75
2021/06/19 10:14:23;;;;;;;17.25;11.00;;;24.00;68.20;;;;;;5035371;28;20026;-76
2021/06/19 10:16:53;;;;;;;15.93;9.40;;;23.80;68.60;;;;;;5033236;28;20026;-75
2021/06/19 10:19:25;;;;;;;13.55;8.27;;;23.70;69.20;;;;;;5034023;28;20083;-75
2021/06/19 10:21:52;;;;;;;14.55;9.35;;;23.60;69.70;;;;;;5034681;28;20102;-76
2021/06/19 10:24:20;;;;;;;12.07;8.90;;;23.70;69.20;;;;;;5033723;28;20053;-76
2021/06/19 10:26:47;;;;;;;13.70;10.05;;;23.60;69.50;;;;;;5035416;28;20500;-76
2021/06/19 10:29:15;;;;;;;13.82;8.80;;;23.50;69.60;;;;;;5041799;28;20361;-76
2021/06/19 10:31:51;;;;;;;13.07;8.93;;;23.60;69.90;;;;;;5024068;28;20044;-79
2021/06/19 10:34:21;;;;;;;12.95;8.88;;;23.70;69.50;;;;;;5052886;28;20025;-77
2021/06/19 10:36:47;;;;;;;12.68;8.20;;;23.90;69.00;;;;;;5054081;28;20025;-77
2021/06/19 10:39:33;;;;;;;14.65;9.95;;;24.00;68.60;;;;;;5053573;28;20028;-76
2021/06/19 10:42:00;;;;;;;13.10;8.23;;;24.10;68.00;;;;;;5057216;28;20060;-76
2021/06/19 10:44:52;;;;;;;12.88;8.43;;;24.30;67.70;;;;;;5061975;28;20017;-77
2021/06/19 10:47:21;;;;;;;15.05;9.20;;;24.40;66.80;;;;;;5058334;28;20025;-76
2021/06/19 10:49:47;;;;;;;11.88;7.53;;;24.40;67.00;;;;;;5053880;28;20025;-77
2021/06/19 10:52:32;;;;;;;14.77;7.85;;;24.50;66.90;;;;;;5061307;28;20037;-76
2021/06/19 10:55:10;;;;;;;15.13;8.82;;;24.80;66.50;;;;;;5056407;28;20020;-76
2021/06/19 10:57:47;;;;;;;14.73;9.82;;;25.10;65.30;;;;;;5053873;28;20025;-78
2021/06/19 11:00:26;;;;;;;15.27;9.05;;;25.30;64.50;;;;;;5058641;28;20178;-76
2021/06/19 11:02:54;;;;;;;11.05;7.90;;;25.40;63.60;;;;;;5059587;28;20020;-77
2021/06/19 11:05:41;;;;;;;14.32;9.02;;;25.50;63.30;;;;;;5059080;28;20017;-78
2021/06/19 11:08:15;;;;;;;15.00;9.82;;;25.50;63.20;;;;;;5063855;28;20053;-77
2021/06/19 11:10:46;;;;;;;14.32;10.02;;;25.40;63.30;;;;;;5061168;28;20021;-78
2021/06/19 11:13:29;;;;;;;12.88;7.53;;;25.30;63.40;;;;;;5068525;28;20025;-76
2021/06/19 11:16:03;;;;;;;12.57;8.32;;;25.20;63.80;;;;;;5060625;28;20024;-76
2021/06/19 11:18:47;;;;;;;13.43;8.98;;;25.20;63.60;;;;;;5056300;28;20086;-77
2021/06/19 11:21:34;;;;;;;14.85;10.57;;;25.50;63.30;;;;;;5054607;28;20027;-77
2021/06/19 11:24:03;;;;;;;16.65;10.68;;;25.60;62.80;;;;;;5059503;28;20037;-78
2021/06/19 11:27:04;;;;;;;19.27;11.00;;;25.70;62.60;;;;;;5052730;28;20024;-76
2021/06/19 11:29:38;;;;;;;13.40;9.00;;;25.70;62.30;;;;;;5009912;28;20033;-77
2021/06/19 11:32:25;;;;;;;14.90;9.20;;;25.70;62.60;;;;;;5047650;28;20071;-80
2021/06/19 11:34:55;;;;;;;15.48;9.52;;;25.70;62.40;;;;;;5058992;28;20051;-76
2021/06/19 11:37:21;;;;;;;16.80;10.67;;;25.60;62.40;;;;;;5062795;28;20030;-76
2021/06/19 11:39:47;;;;;;;14.70;9.98;;;25.70;62.40;;;;;;5060058;28;20043;-77
2021/06/19 11:42:14;;;;;;;17.75;10.57;;;25.60;62.10;;;;;;5057649;28;20017;-77
2021/06/19 11:44:42;;;;;;;15.88;10.48;;;25.60;62.60;;;;;;5061578;28;20322;-77
2021/06/19 11:47:08;;;;;;;15.40;10.32;;;25.50;62.40;;;;;;5063456;28;20019;-76
2021/06/19 11:49:37;;;;;;;14.48;9.50;;;25.50;62.70;;;;;;5053896;28;20024;-76
2021/06/19 11:52:04;;;;;;;18.67;10.82;;;25.70;62.70;;;;;;5063078;28;20126;-77
2021/06/19 11:54:30;;;;;;;20.27;11.68;;;25.80;62.00;;;;;;5056251;28;20017;-76
2021/06/19 11:56:56;;;;;;;16.10;11.10;;;25.70;61.80;;;;;;5057883;28;20021;-77
2021/06/19 11:59:23;;;;;;;18.27;12.35;;;25.80;62.20;;;;;;5055823;28;20099;-77
2021/06/19 12:01:50;;;;;;;20.05;11.32;;;25.80;61.30;;;;;;5053491;28;20021;-78
2021/06/19 12:04:27;;;;;;;15.30;9.93;;;25.70;61.60;;;;;;5059027;28;20561;-77
2021/06/19 12:06:55;;;;;;;18.25;11.60;;;25.70;61.90;;;;;;5060275;28;20021;-77
2021/06/19 12:09:26;;;;;;;15.38;9.60;;;25.70;62.00;;;;;;5056218;28;20021;-77
2021/06/19 12:12:15;;;;;;;16.60;10.90;;;25.80;62.00;;;;;;5054794;28;20107;-77
2021/06/19 12:14:41;;;;;;;18.83;11.52;;;25.70;61.80;;;;;;5061871;28;20020;-76
2021/06/19 12:17:09;;;;;;;22.85;14.00;;;25.60;62.00;;;;;;5055884;28;20025;-78
2021/06/19 12:19:37;;;;;;;16.67;10.48;;;25.50;62.00;;;;;;5051103;28;20473;-77
2021/06/19 12:22:11;;;;;;;16.73;11.00;;;25.50;62.60;;;;;;5057287;28;20029;-77
2021/06/19 12:24:39;;;;;;;16.33;10.73;;;25.60;62.60;;;;;;5063166;28;20346;-77
2021/06/19 12:27:14;;;;;;;19.80;12.38;;;25.70;62.20;;;;;;5058796;28;20017;-75
2021/06/19 12:29:41;;;;;;;14.40;9.27;;;25.70;61.60;;;;;;5058384;28;20021;-79
2021/06/19 12:32:26;;;;;;;19.13;12.25;;;25.70;62.00;;;;;;5061147;28;20036;-80
2021/06/19 12:34:58;;;;;;;16.02;10.90;;;25.80;61.30;;;;;;5045709;28;20342;-81
2021/06/19 12:37:32;;;;;;;15.07;10.60;;;25.70;61.10;;;;;;5059438;28;20136;-80
2021/06/19 12:40:00;;;;;;;16.73;11.50;;;25.60;61.30;;;;;;5051864;28;20129;-80
2021/06/19 12:42:33;;;;;;;17.00;11.27;;;25.60;61.60;;;;;;5066987;28;20027;-80
2021/06/19 12:45:31;;;;;;;20.30;11.30;;;25.50;61.80;;;;;;5057564;28;20021;-79